Time;durP1;ratioP1;P1;durP2;ratioP2;P2;SDS_P1;SDS_P2;PMS_P1;PMS_P2;Temp;Humidity;BMP_temperature;BMP_pressure;BME280_temperature;BME280_humidity;BME280_pressure;Samples;Min_cycle;Max_cycle;Signal;HPM_P1;HPM_P2
2022/11/16 00:01:21;;;;;;;;;;;;;;;17.77;65.35;100185.11;2377454;75;50327;-78
2022/11/16 00:04:22;;;;;;;;;;;;;;;17.77;65.39;100177.59;2331712;75;49711;-78
2022/11/16 00:07:24;;;;;;;;;;;;;;;17.78;65.34;100165.89;2332442;75;50635;-77
2022/11/16 00:10:25;;;;;;;;;;;;;;;17.80;65.28;100167.88;2357564;74;51424;-77
2022/11/16 00:13:27;;;;;;;;;;;;;;;17.77;65.27;100167.71;2328101;75;51617;-78
2022/11/16 00:16:29;;;;;;;;;;;;;;;17.78;65.27;100160.53;2328671;75;52342;-76
2022/11/16 00:19:30;;;;;;;;;;;;;;;17.78;65.19;100161.88;2328822;75;51427;-77
2022/11/16 00:22:32;;;;;;;;;;;;;;;17.78;65.18;100160.02;2352830;75;50728;-77
2022/11/16 00:25:33;;;;;;;;;;;;;;;17.77;65.08;100158.34;2328247;75;50716;-77
2022/11/16 00:28:35;;;;;;;;;;;;;;;17.76;65.08;100156.70;2301442;75;51240;-76
2022/11/16 00:31:37;;;;;;;;;;;;;;;17.80;65.04;100165.20;2328761;75;50405;-77
2022/11/16 00:34:39;;;;;;;;;;;;;;;17.78;64.98;100159.20;2328333;75;50117;-78
2022/11/16 00:37:40;;;;;;;;;;;;;;;17.78;64.94;100156.01;2353464;74;51534;-78
2022/11/16 00:40:42;;;;;;;;;;;;;;;17.78;64.97;100160.53;2363455;74;51161;-77
2022/11/16 00:43:44;;;;;;;;;;;;;;;17.77;65.01;100157.52;2384174;74;50444;-77
2022/11/16 00:46:45;;;;;;;;;;;;;;;17.77;64.93;100162.36;2363930;74;50312;-79
2022/11/16 00:49:47;;;;;;;;;;;;;;;17.76;64.91;100154.02;2353793;74;50678;-77
2022/11/16 00:52:48;;;;;;;;;;;;;;;17.75;64.99;100153.72;2364391;74;50969;-77
2022/11/16 00:55:50;;;;;;;;;;;;;;;17.78;64.82;100149.31;2369881;75;51418;-77
2022/11/16 00:58:51;;;;;;;;;;;;;;;17.77;64.82;100152.99;2344924;75;51424;-78
2022/11/16 01:01:53;;;;;;;;;;;;;;;17.74;64.95;100153.38;2344489;75;51416;-77
2022/11/16 01:04:55;;;;;;;;;;;;;;;17.75;64.90;100150.19;2339766;74;49546;-78
2022/11/16 01:07:56;;;;;;;;;;;;;;;17.73;64.88;100145.56;2322762;75;50264;-77
2022/11/16 01:14:17;;;;;;;;;;;;;;;17.74;64.91;100152.55;2354195;75;24308;-77
2022/11/16 01:17:19;;;;;;;;;;;;;;;17.73;64.92;100155.75;2328853;75;51920;-77
2022/11/16 01:20:21;;;;;;;;;;;;;;;17.74;64.88;100151.22;2333398;74;50212;-77
2022/11/16 01:23:23;;;;;;;;;;;;;;;17.69;64.96;100153.12;2394513;74;51474;-77
2022/11/16 01:26:24;;;;;;;;;;;;;;;17.69;64.98;100158.98;2394658;74;50717;-77
2022/11/16 01:29:27;;;;;;;;;;;;;;;17.68;64.98;100161.35;2348818;74;50962;-79
2022/11/16 01:32:28;;;;;;;;;;;;;;;17.68;64.94;100159.50;2367868;74;51564;-80
2022/11/16 01:35:30;;;;;;;;;;;;;;;17.68;64.92;100162.69;2370104;74;50236;-77
2022/11/16 01:38:31;;;;;;;;;;;;;;;17.67;64.94;100163.17;2348064;74;50135;-78
2022/11/16 01:41:33;;;;;;;;;;;;;;;17.68;64.86;100155.48;2365281;74;50107;-80
2022/11/16 01:44:36;;;;;;;;;;;;;;;17.65;64.98;100153.19;2358601;74;50786;-77
2022/11/16 01:47:38;;;;;;;;;;;;;;;17.63;64.99;100146.68;2391104;74;51480;-77
2022/11/16 01:50:39;;;;;;;;;;;;;;;17.63;64.97;100146.68;2390947;74;51520;-77
2022/11/16 01:53:41;;;;;;;;;;;;;;;17.60;65.08;100131.02;2363712;74;52968;-77
2022/11/16 01:56:43;;;;;;;;;;;;;;;17.64;64.90;100130.11;2391195;74;51460;-76
2022/11/16 01:59:45;;;;;;;;;;;;;;;17.64;64.93;100125.58;2391649;74;51489;-78
2022/11/16 02:02:47;;;;;;;;;;;;;;;17.66;64.83;100127.26;2364647;74;50370;-76
2022/11/16 02:06:07;;;;;;;;;;;;;;;17.67;64.75;100123.04;2331729;75;51538;-77
2022/11/16 02:12:48;;;;;;;;;;;;;;;17.62;64.81;100116.94;2372627;75;22369;-78
2022/11/16 02:15:54;;;;;;;;;;;;;;;17.60;64.81;100109.61;2372157;75;50764;-78
2022/11/16 02:19:13;;;;;;;;;;;;;;;17.61;64.82;100103.74;2335908;75;50411;-77
2022/11/16 02:22:19;;;;;;;;;;;;;;;17.61;64.80;100099.22;2372660;75;50403;-77
2022/11/16 02:25:32;;;;;;;;;;;;;;;17.61;64.80;100096.54;2335539;75;51577;-78
2022/11/16 02:28:38;;;;;;;;;;;;;;;17.62;64.73;100100.89;2378526;73;51522;-78
2022/11/16 02:31:47;;;;;;;;;;;;;;;17.61;64.73;100095.20;2402718;73;51503;-77
2022/11/16 02:34:50;;;;;;;;;;;;;;;17.61;64.73;100086.36;2398295;74;51609;-78
2022/11/16 02:37:54;;;;;;;;;;;;;;;17.61;64.66;100083.16;2397935;74;51581;-76
2022/11/16 02:40:57;;;;;;;;;;;;;;;17.59;64.77;100081.19;2398815;74;50844;-78
2022/11/16 02:44:02;;;;;;;;;;;;;;;17.58;64.73;100078.20;2399533;74;51537;-77
2022/11/16 02:47:05;;;;;;;;;;;;;;;17.58;64.75;100068.02;2376050;74;51230;-77
2022/11/16 02:50:08;;;;;;;;;;;;;;;17.61;64.53;100072.46;2399381;74;50782;-77
2022/11/16 02:53:10;;;;;;;;;;;;;;;17.62;64.49;100063.44;2407409;72;51575;-77
2022/11/16 02:56:12;;;;;;;;;;;;;;;17.61;64.48;100060.42;2398993;74;51452;-78
2022/11/16 02:59:14;;;;;;;;;;;;;;;17.56;64.59;100064.18;2404208;74;51829;-77
2022/11/16 03:02:26;;;;;;;;;;;;;;;17.57;64.57;100071.20;2398885;74;50879;-77
2022/11/16 03:05:31;;;;;;;;;;;;;;;17.56;64.58;100063.36;2399972;74;50465;-77
2022/11/16 03:08:37;;;;;;;;;;;;;;;17.54;64.59;100059.52;2401798;74;51664;-77
2022/11/16 03:11:58;;;;;;;;;;;;;;;17.57;64.51;100060.50;2376172;72;50977;-78
2022/11/16 03:15:01;;;;;;;;;;;;;;;17.53;64.58;100059.73;2370306;73;51555;-78
2022/11/16 03:18:03;;;;;;;;;;;;;;;17.52;64.62;100062.92;2376671;72;50702;-76
2022/11/16 03:21:06;;;;;;;;;;;;;;;17.53;64.51;100065.91;2376627;74;50696;-78
2022/11/16 03:24:08;;;;;;;;;;;;;;;17.57;64.39;100076.55;2373219;73;51530;-77
2022/11/16 03:27:17;;;;;;;;;;;;;;;17.56;64.48;100074.06;2386747;73;50253;-77
2022/11/16 03:30:19;;;;;;;;;;;;;;;17.55;64.47;100073.23;2412624;73;50684;-78
2022/11/16 03:33:22;;;;;;;;;;;;;;;17.53;64.51;100065.08;2412329;73;50316;-78
2022/11/16 03:36:28;;;;;;;;;;;;;;;17.54;64.47;100061.37;2386615;73;51287;-76
2022/11/16 03:39:31;;;;;;;;;;;;;;;17.53;64.43;100053.87;2412626;73;51589;-77
2022/11/16 03:42:33;;;;;;;;;;;;;;;17.54;64.42;100053.35;2403804;72;50785;-78
2022/11/16 03:45:34;;;;;;;;;;;;;;;17.54;64.46;100051.50;2382431;73;51426;-77
2022/11/16 03:48:36;;;;;;;;;;;;;;;17.50;64.55;100050.24;2393153;73;49541;-78
2022/11/16 03:51:38;;;;;;;;;;;;;;;17.51;64.49;100053.73;2393069;73;49973;-76
2022/11/16 03:54:39;;;;;;;;;;;;;;;17.50;64.43;100047.56;2419576;73;50218;-76
2022/11/16 03:57:41;;;;;;;;;;;;;;;17.52;64.38;100048.21;2423274;73;51559;-78
2022/11/16 04:00:43;;;;;;;;;;;;;;;17.49;64.42;100049.91;2422189;73;51662;-79
2022/11/16 04:03:44;;;;;;;;;;;;;;;17.52;64.38;100048.21;2419566;73;50387;-76
2022/11/16 04:30:06;;;;;;;;;;;;;;;17.68;63.66;100014.20;2412649;73;22475;-76
2022/11/16 04:39:47;;;;;;;;;;;;;;;17.81;63.33;100020.51;2412129;73;22345;-77
2022/11/16 04:42:52;;;;;;;;;;;;;;;17.81;63.32;100015.67;2411634;73;51420;-76
2022/11/16 04:49:13;;;;;;;;;;;;;;;17.79;63.33;100012.33;2411988;73;22336;-78
2022/11/16 04:52:15;;;;;;;;;;;;;;;17.78;63.32;100008.00;2382342;73;52366;-78
2022/11/16 04:55:16;;;;;;;;;;;;;;;17.76;63.31;100008.70;2378963;72;51506;-77
2022/11/16 04:58:18;;;;;;;;;;;;;;;17.75;63.32;100009.22;2374451;73;50600;-77
2022/11/16 05:02:06;;;;;;;;;;;;;;;17.72;63.37;100010.09;2408202;73;51412;-77
2022/11/16 05:04:22;;;;;;;;;;;;;;;17.68;63.44;100010.19;2378045;74;22425;-77
2022/11/16 05:07:24;;;;;;;;;;;;;;;17.66;63.63;100002.85;2383425;73;50053;-77
2022/11/16 05:10:26;;;;;;;;;;;;;;;17.62;63.71;99992.54;2384286;73;51522;-76
2022/11/16 05:13:27;;;;;;;;;;;;;;;17.61;63.77;100001.56;2411855;73;51411;-76
2022/11/16 05:16:29;;;;;;;;;;;;;;;17.60;63.88;99992.41;2401667;73;52347;-77
2022/11/16 05:22:54;;;;;;;;;;;;;;;17.59;63.82;100002.27;2412517;73;22348;-76
2022/11/16 05:25:55;;;;;;;;;;;;;;;17.61;63.87;99997.55;2411798;73;50300;-77
2022/11/16 05:28:57;;;;;;;;;;;;;;;17.61;63.75;99998.07;2401770;73;51629;-78
2022/11/16 05:31:59;;;;;;;;;;;;;;;17.67;63.46;100001.82;2365728;73;50350;-78
2022/11/16 05:35:00;;;;;;;;;;;;;;;17.76;63.18;100004.17;2411822;73;51488;-78
2022/11/16 05:38:02;;;;;;;;;;;;;;;17.72;63.35;100012.77;2396716;73;50261;-78
2022/11/16 05:41:03;;;;;;;;;;;;;;;17.69;63.59;100011.83;2372987;74;50905;-78
2022/11/16 05:44:05;;;;;;;;;;;;;;;17.66;63.69;100013.55;2373146;74;50318;-78
2022/11/16 05:47:07;;;;;;;;;;;;;;;17.63;63.67;100013.43;2398915;74;50427;-78
2022/11/16 05:50:08;;;;;;;;;;;;;;;17.63;64.36;100029.48;2399309;74;51540;-79
2022/11/16 05:53:10;;;;;;;;;;;;;;;17.63;64.76;100029.48;2401436;74;51017;-79
2022/11/16 05:56:13;;;;;;;;;;;;;;;17.63;64.77;100030.81;2399711;74;50698;-80
2022/11/16 05:59:15;;;;;;;;;;;;;;;17.63;64.63;100028.14;2400244;74;51964;-82
2022/11/16 06:02:17;;;;;;;;;;;;;;;17.68;64.07;100020.88;2400391;74;51521;-80
2022/11/16 06:05:19;;;;;;;;;;;;;;;17.72;63.77;100022.14;2374236;74;50103;-81
2022/11/16 06:08:20;;;;;;;;;;;;;;;17.76;63.92;100027.44;2365302;73;50703;-81
2022/11/16 06:11:22;;;;;;;;;;;;;;;17.83;63.75;100027.02;2412098;73;50690;-82
2022/11/16 06:14:23;;;;;;;;;;;;;;;17.85;63.61;100035.66;2412709;73;50396;-82
2022/11/16 06:17:25;;;;;;;;;;;;;;;17.83;63.78;100037.72;2386634;73;51471;-82
2022/11/16 06:20:27;;;;;;;;;;;;;;;17.77;64.49;100045.13;2386356;73;51394;-81
2022/11/16 06:23:28;;;;;;;;;;;;;;;17.73;64.72;100035.85;2386841;73;51782;-80
2022/11/16 06:26:30;;;;;;;;;;;;;;;17.69;65.02;100043.41;2413322;73;51475;-80
2022/11/16 06:29:31;;;;;;;;;;;;;;;17.68;65.41;100035.60;2386409;73;50934;-78
2022/11/16 06:32:33;;;;;;;;;;;;;;;17.67;66.16;100033.92;2412132;73;50496;-78
2022/11/16 06:35:35;;;;;;;;;;;;;;;17.66;66.15;100047.00;2412313;73;50371;-78
2022/11/16 06:38:37;;;;;;;;;;;;;;;17.67;66.63;100044.63;2389058;73;50683;-78
2022/11/16 06:41:39;;;;;;;;;;;;;;;17.65;66.48;100044.84;2358017;74;51228;-78
2022/11/16 06:44:41;;;;;;;;;;;;;;;17.66;66.22;100049.67;2340155;74;52636;-78
2022/11/16 06:47:42;;;;;;;;;;;;;;;17.67;66.44;100053.98;2378658;73;51586;-82
2022/11/16 06:50:44;;;;;;;;;;;;;;;17.66;66.38;100046.48;2404630;73;50333;-80
2022/11/16 06:53:45;;;;;;;;;;;;;;;17.67;66.40;100039.27;2403927;73;52395;-81
2022/11/16 06:56:47;;;;;;;;;;;;;;;17.66;66.40;100044.32;2404347;73;51644;-81
2022/11/16 06:59:49;;;;;;;;;;;;;;;17.66;66.58;100053.69;2386382;73;50511;-82
2022/11/16 07:02:50;;;;;;;;;;;;;;;17.65;66.19;100050.19;2386194;73;50346;-82
2022/11/16 07:05:52;;;;;;;;;;;;;;;17.68;65.95;100051.14;2375583;73;50034;-82
2022/11/16 07:08:53;;;;;;;;;;;;;;;17.76;65.24;100050.18;2372855;73;50663;-82
2022/11/16 07:11:55;;;;;;;;;;;;;;;17.84;64.82;100052.75;2409017;73;51372;-82
2022/11/16 07:14:57;;;;;;;;;;;;;;;17.83;64.67;100063.97;2412616;74;50381;-82
2022/11/16 07:18:05;;;;;;;;;;;;;;;17.83;64.62;100069.84;2383951;72;49488;-82
2022/11/16 07:21:07;;;;;;;;;;;;;;;17.75;64.98;100054.70;2376462;73;51677;-82
2022/11/16 07:24:08;;;;;;;;;;;;;;;17.69;65.13;100051.95;2384814;73;50968;-81
2022/11/16 07:27:10;;;;;;;;;;;;;;;17.67;65.23;100056.67;2385473;73;51486;-81
2022/11/16 07:30:12;;;;;;;;;;;;;;;17.64;65.29;100055.20;2389450;73;51681;-81
2022/11/16 07:33:14;;;;;;;;;;;;;;;17.64;65.35;100056.02;2342394;74;51462;-82
2022/11/16 07:36:15;;;;;;;;;;;;;;;17.62;65.30;100052.73;2369930;74;50353;-80
2022/11/16 07:39:17;;;;;;;;;;;;;;;17.66;65.00;100060.38;2342325;75;51451;-81
2022/11/16 07:42:18;;;;;;;;;;;;;;;17.71;64.75;100052.09;2369658;75;51566;-81
2022/11/16 07:45:20;;;;;;;;;;;;;;;17.79;64.51;100063.17;2369822;74;51342;-81
2022/11/16 07:48:22;;;;;;;;;;;;;;;17.80;64.37;100059.00;2403503;73;50593;-81
2022/11/16 07:51:23;;;;;;;;;;;;;;;17.81;64.31;100067.86;2387246;73;50749;-81
2022/11/16 07:54:25;;;;;;;;;;;;;;;17.85;64.15;100066.44;2385658;73;52395;-81
2022/11/16 07:57:26;;;;;;;;;;;;;;;17.85;64.10;100074.46;2413406;73;51574;-82
2022/11/16 08:00:28;;;;;;;;;;;;;;;17.74;64.50;100067.75;2413091;73;51457;-82
2022/11/16 08:03:30;;;;;;;;;;;;;;;17.69;64.69;100064.82;2412513;73;52134;-81
2022/11/16 08:06:32;;;;;;;;;;;;;;;17.66;64.78;100073.23;2384520;73;52546;-81
2022/11/16 08:09:36;;;;;;;;;;;;;;;17.67;64.85;100076.73;2409278;74;51513;-81
2022/11/16 08:12:37;;;;;;;;;;;;;;;17.67;64.59;100068.70;2408981;74;22444;-81
2022/11/16 08:15:38;;;;;;;;;;;;;;;17.72;64.42;100064.95;2418658;72;51605;-80
2022/11/16 08:18:40;;;;;;;;;;;;;;;17.76;64.30;100072.92;2359811;73;50090;-80
2022/11/16 08:21:44;;;;;;;;;;;;;;;17.79;64.19;100065.84;2359863;75;50736;-80
2022/11/16 08:24:45;;;;;;;;;;;;;;;17.79;64.16;100060.49;2354888;75;22629;-80
2022/11/16 08:27:47;;;;;;;;;;;;;;;17.79;64.14;100057.81;2341833;75;50398;-80
2022/11/16 08:30:50;;;;;;;;;;;;;;;17.78;64.10;100065.54;2341835;75;52311;-82
2022/11/16 08:33:51;;;;;;;;;;;;;;;17.76;64.22;100060.37;2379992;71;22213;-81
2022/11/16 08:36:53;;;;;;;;;;;;;;;17.73;64.29;100057.26;2387085;72;50717;-83
2022/11/16 08:39:55;;;;;;;;;;;;;;;17.68;64.77;100048.98;2407265;72;50200;-81
2022/11/16 08:42:56;;;;;;;;;;;;;;;17.67;64.69;100047.30;2370994;74;51577;-81
2022/11/16 08:45:58;;;;;;;;;;;;;;;17.69;64.50;100043.41;2415812;72;50764;-82
2022/11/16 08:49:00;;;;;;;;;;;;;;;17.75;64.40;100038.66;2425700;72;49955;-81
2022/11/16 08:52:02;;;;;;;;;;;;;;;17.80;64.31;100043.44;2408272;74;51411;-81
2022/11/16 08:55:03;;;;;;;;;;;;;;;17.83;64.18;100040.40;2412642;73;50194;-81
2022/11/16 08:58:05;;;;;;;;;;;;;;;17.82;64.14;100033.37;2381498;73;51429;-81
2022/11/16 09:01:08;;;;;;;;;;;;;;;17.81;64.06;100029.88;2383694;73;50348;-81
2022/11/16 09:04:10;;;;;;;;;;;;;;;17.81;64.04;100023.70;2384300;73;51195;-81
2022/11/16 09:07:12;;;;;;;;;;;;;;;17.81;64.02;100023.70;2356514;73;52355;-81
2022/11/16 09:10:14;;;;;;;;;;;;;;;17.80;64.17;100017.53;2412613;73;51573;-81
2022/11/16 09:13:15;;;;;;;;;;;;;;;17.72;64.54;100009.58;2383066;73;51465;-82
2022/11/16 09:16:19;;;;;;;;;;;;;;;17.72;64.49;100012.77;2411406;73;51672;-82
2022/11/16 09:19:20;;;;;;;;;;;;;;;17.74;64.26;100018.77;2410083;72;23189;-81
2022/11/16 09:22:22;;;;;;;;;;;;;;;17.77;64.14;100010.34;2398125;73;51562;-81
2022/11/16 09:25:23;;;;;;;;;;;;;;;17.82;63.99;100010.63;2389128;73;51489;-81
2022/11/16 09:28:26;;;;;;;;;;;;;;;17.82;63.90;100007.44;2407826;72;50152;-82
2022/11/16 09:31:27;;;;;;;;;;;;;;;17.82;63.86;100006.09;2352253;73;50079;-82
2022/11/16 09:34:29;;;;;;;;;;;;;;;17.81;63.83;100007.13;2408867;73;51979;-82
2022/11/16 09:37:30;;;;;;;;;;;;;;;17.82;63.75;100003.42;2415019;73;50801;-82
2022/11/16 09:40:37;;;;;;;;;;;;;;;17.82;63.74;99997.25;2398357;72;51519;-81
2022/11/16 09:43:55;;;;;;;;;;;;;;;17.80;63.89;99994.78;2384329;74;50856;-82
2022/11/16 09:46:57;;;;;;;;;;;;;;;17.71;64.27;99997.75;2368339;73;50524;-81
2022/11/16 09:49:59;;;;;;;;;;;;;;;17.71;64.11;99992.40;2412155;73;52381;-81
2022/11/16 09:53:05;;;;;;;;;;;;;;;17.75;64.01;99990.97;2411671;74;51092;-81
2022/11/16 09:56:12;;;;;;;;;;;;;;;17.80;63.92;99993.92;2381723;74;49707;-81
2022/11/16 09:59:28;;;;;;;;;;;;;;;17.83;63.77;99989.55;2410175;74;50454;-81
2022/11/16 10:02:38;;;;;;;;;;;;;;;17.83;63.71;99992.23;2410977;74;50255;-81
2022/11/16 10:05:58;;;;;;;;;;;;;;;17.83;63.70;99988.22;2411545;74;50424;-81
2022/11/16 10:08:59;;;;;;;;;;;;;;;17.81;63.70;99984.90;2411566;74;51141;-80
2022/11/16 10:12:08;;;;;;;;;;;;;;;17.80;63.67;99983.22;2411816;74;50442;-81
2022/11/16 10:15:22;;;;;;;;;;;;;;;17.82;63.61;99991.89;2411218;73;51014;-80
2022/11/16 10:18:25;;;;;;;;;;;;;;;17.82;63.53;99981.19;2405631;74;50895;-81
2022/11/16 10:21:33;;;;;;;;;;;;;;;17.74;63.75;99989.33;2380147;74;51195;-81
2022/11/16 10:24:36;;;;;;;;;;;;;;;17.72;63.77;99982.00;2405858;74;51453;-81
2022/11/16 10:27:41;;;;;;;;;;;;;;;17.78;63.74;99976.72;2406013;74;51506;-81
2022/11/16 10:30:50;;;;;;;;;;;;;;;17.82;63.60;99969.97;2409447;73;50902;-81
2022/11/16 10:33:52;;;;;;;;;;;;;;;17.84;63.48;99967.11;2363332;72;51221;-80
2022/11/16 10:36:55;;;;;;;;;;;;;;;17.85;63.44;99955.37;2392564;72;51027;-81
2022/11/16 10:39:57;;;;;;;;;;;;;;;17.84;63.40;99953.21;2370237;75;50774;-81
2022/11/16 10:43:05;;;;;;;;;;;;;;;17.83;63.41;99954.77;2370400;75;51361;-81
2022/11/16 10:46:18;;;;;;;;;;;;;;;17.81;63.39;99958.14;2380222;73;52555;-81
2022/11/16 10:49:21;;;;;;;;;;;;;;;17.82;63.33;99956.59;2412641;73;51493;-81
2022/11/16 10:52:22;;;;;;;;;;;;;;;17.81;63.43;99953.61;2412439;73;51482;-81
2022/11/16 10:55:24;;;;;;;;;;;;;;;17.79;63.42;99950.78;2431814;72;51491;-81
2022/11/16 10:58:26;;;;;;;;;;;;;;;17.77;63.53;99960.84;2440546;72;51504;-81
2022/11/16 11:01:35;;;;;;;;;;;;;;;17.80;63.47;99961.81;2362409;75;50779;-82
2022/11/16 11:04:37;;;;;;;;;;;;;;;17.84;63.39;99965.77;2389170;72;50734;-81
2022/11/16 11:07:39;;;;;;;;;;;;;;;17.85;63.29;99955.37;2405557;72;51448;-81
2022/11/16 11:10:41;;;;;;;;;;;;;;;17.83;63.28;99954.77;2462089;72;52354;-81
2022/11/16 11:13:42;;;;;;;;;;;;;;;17.83;63.26;99958.78;2433530;72;50208;-80
2022/11/16 11:16:44;;;;;;;;;;;;;;;17.82;63.25;99962.45;2423188;72;50371;-81
2022/11/16 11:19:46;;;;;;;;;;;;;;;17.81;63.23;99954.95;2428582;72;51438;-81
2022/11/16 11:22:57;;;;;;;;;;;;;;;17.80;63.28;99939.07;2355844;73;52287;-82
2022/11/16 11:25:59;;;;;;;;;;;;;;;17.82;63.18;99937.03;2414177;72;50726;-82
2022/11/16 11:29:01;;;;;;;;;;;;;;;17.76;63.31;99945.30;2345641;74;50161;-82
2022/11/16 11:32:06;;;;;;;;;;;;;;;17.76;63.36;99945.83;2371744;73;50600;-81
2022/11/16 11:35:09;;;;;;;;;;;;;;;17.79;63.31;99940.92;2353814;73;50523;-82
2022/11/16 11:38:12;;;;;;;;;;;;;;;17.87;63.16;99942.63;2398877;73;51389;-80
2022/11/16 11:41:15;;;;;;;;;;;;;;;17.88;63.12;99948.80;2413018;73;51504;-81
2022/11/16 11:44:17;;;;;;;;;;;;;;;17.90;63.48;99960.97;2414358;72;50751;-82
2022/11/16 11:47:38;;;;;;;;;;;;;;;17.90;63.45;99958.29;2412174;73;50983;-81
2022/11/16 11:50:44;;;;;;;;;;;;;;;17.89;63.32;99958.50;2411094;74;51532;-81
2022/11/16 11:53:55;;;;;;;;;;;;;;;17.87;63.25;99960.02;2372776;74;51328;-82
2022/11/16 11:56:57;;;;;;;;;;;;;;;17.84;63.28;99957.75;2374149;74;50543;-81
2022/11/16 11:59:59;;;;;;;;;;;;;;;17.83;63.22;99953.42;2345333;75;51649;-81
2022/11/16 12:03:05;;;;;;;;;;;;;;;17.79;63.31;99948.10;2372982;74;50305;-82
2022/11/16 12:06:17;;;;;;;;;;;;;;;17.79;63.36;99950.30;2374353;73;51545;-81
2022/11/16 12:09:30;;;;;;;;;;;;;;;17.85;63.27;99956.70;2412969;73;51552;-82
2022/11/16 12:12:50;;;;;;;;;;;;;;;17.89;63.15;99951.81;2384162;73;52578;-80
2022/11/16 12:15:53;;;;;;;;;;;;;;;17.89;63.07;99953.97;2412587;73;51635;-81
2022/11/16 12:18:56;;;;;;;;;;;;;;;17.87;63.06;99956.01;2407315;73;50595;-81
2022/11/16 12:22:05;;;;;;;;;;;;;;;17.86;63.06;99954.89;2378072;73;50365;-82
2022/11/16 12:25:09;;;;;;;;;;;;;;;17.87;63.02;99952.52;2344013;74;51159;-82
2022/11/16 12:28:18;;;;;;;;;;;;;;;17.84;63.00;99957.22;2369645;75;50484;-81
2022/11/16 12:31:21;;;;;;;;;;;;;;;17.82;63.03;99958.44;2370497;73;51495;-81
2022/11/16 12:34:39;;;;;;;;;;;;;;;17.79;63.07;99956.13;2370177;75;51575;-81
2022/11/16 12:37:51;;;;;;;;;;;;;;;17.77;63.18;99955.49;2371226;73;49786;-81
2022/11/16 12:41:11;;;;;;;;;;;;;;;17.81;63.14;99954.13;2396359;72;51542;-82
2022/11/16 12:44:14;;;;;;;;;;;;;;;17.89;63.00;99955.83;2405803;73;50428;-80
2022/11/16 12:47:22;;;;;;;;;;;;;;;17.92;62.90;99956.77;2402639;73;51353;-81
2022/11/16 12:50:28;;;;;;;;;;;;;;;17.92;62.81;99957.59;2375839;74;51657;-81
2022/11/16 12:53:34;;;;;;;;;;;;;;;17.92;62.76;99954.91;2388066;72;50121;-81
2022/11/16 12:56:37;;;;;;;;;;;;;;;17.91;62.75;99953.27;2371895;73;50777;-81
2022/11/16 12:59:43;;;;;;;;;;;;;;;17.89;62.75;99952.63;2369765;75;50970;-82
2022/11/16 13:02:53;;;;;;;;;;;;;;;17.86;62.78;99958.38;2359756;73;51675;-80
2022/11/16 13:06:04;;;;;;;;;;;;;;;17.85;62.76;99951.36;2380299;73;51795;-82
2022/11/16 13:09:21;;;;;;;;;;;;;;;17.83;62.76;99958.78;2395367;73;50484;-81
2022/11/16 13:12:23;;;;;;;;;;;;;;;17.81;62.87;99946.09;2400302;73;50755;-81
2022/11/16 13:15:26;;;;;;;;;;;;;;;17.86;62.83;99945.52;2415924;73;51194;-81
2022/11/16 13:18:28;;;;;;;;;;;;;;;17.93;62.81;99949.89;2413046;73;50452;-81
2022/11/16 13:21:31;;;;;;;;;;;;;;;17.96;62.64;99941.47;2410601;73;50347;-79
2022/11/16 13:24:34;;;;;;;;;;;;;;;17.95;62.63;99936.30;2409609;73;52030;-80
2022/11/16 13:27:40;;;;;;;;;;;;;;;17.94;62.62;99931.98;2384452;73;51775;-80
2022/11/16 13:30:53;;;;;;;;;;;;;;;17.90;62.54;99936.88;2388126;72;50682;-80
2022/11/16 13:34:01;;;;;;;;;;;;;;;17.88;62.46;99927.39;2404720;74;51478;-79
2022/11/16 13:37:04;;;;;;;;;;;;;;;17.86;62.39;99923.59;2405953;74;51889;-80
2022/11/16 13:40:07;;;;;;;;;;;;;;;17.84;62.38;99924.29;2385074;73;51477;-80
2022/11/16 13:43:11;;;;;;;;;;;;;;;17.82;62.36;99923.14;2412706;72;51528;-79
2022/11/16 13:46:12;;;;;;;;;;;;;;;17.82;62.46;99924.99;2370217;75;51539;-79
2022/11/16 13:49:21;;;;;;;;;;;;;;;17.84;62.50;99926.97;2369959;75;51212;-79
2022/11/16 13:52:23;;;;;;;;;;;;;;;17.90;62.39;99926.17;2330285;75;51699;-79
2022/11/16 13:55:31;;;;;;;;;;;;;;;17.93;62.33;99928.48;2370168;75;50700;-79
2022/11/16 13:58:33;;;;;;;;;;;;;;;17.94;62.26;99927.45;2370633;74;51499;-79
2022/11/16 14:01:53;;;;;;;;;;;;;;;17.92;62.26;99926.81;2370112;75;51589;-79
2022/11/16 14:05:01;;;;;;;;;;;;;;;17.91;62.26;99931.04;2335550;75;51498;-79
2022/11/16 14:08:20;;;;;;;;;;;;;;;17.90;62.29;99931.52;2370233;75;51627;-79
2022/11/16 14:11:36;;;;;;;;;;;;;;;17.87;62.32;99928.42;2375263;73;51724;-79
2022/11/16 14:14:56;;;;;;;;;;;;;;;17.86;62.33;99932.95;2374272;73;50232;-79
2022/11/16 14:17:59;;;;;;;;;;;;;;;17.82;62.33;99928.48;2370971;74;51641;-79
2022/11/16 14:21:08;;;;;;;;;;;;;;;17.82;62.45;99923.66;2371044;75;52336;-79
2022/11/16 14:24:14;;;;;;;;;;;;;;;17.84;62.45;99922.95;2370854;75;53274;-79
2022/11/16 14:27:18;;;;;;;;;;;;;;;17.89;62.33;99921.86;2370922;75;51438;-80
2022/11/16 14:30:24;;;;;;;;;;;;;;;17.91;62.28;99925.69;2341584;74;50984;-80
2022/11/16 14:33:28;;;;;;;;;;;;;;;17.90;62.28;99922.67;2370023;74;50667;-79
2022/11/16 14:36:39;;;;;;;;;;;;;;;17.88;62.25;99921.55;2369827;74;51978;-79
2022/11/16 14:39:42;;;;;;;;;;;;;;;17.86;62.25;99919.58;2370688;74;51333;-80
2022/11/16 14:42:45;;;;;;;;;;;;;;;17.86;62.27;99922.25;2370884;73;49362;-79
2022/11/16 14:45:48;;;;;;;;;;;;;;;17.83;62.26;99922.65;2411159;73;50581;-78
2022/11/16 14:48:49;;;;;;;;;;;;;;;17.82;62.28;99916.97;2412720;73;51581;-81
2022/11/16 14:51:52;;;;;;;;;;;;;;;17.79;62.41;99920.86;2412609;73;51780;-80
2022/11/16 14:54:59;;;;;;;;;;;;;;;17.79;62.43;99910.64;2412572;73;50731;-80
2022/11/16 14:58:08;;;;;;;;;;;;;;;17.85;62.35;99917.91;2412303;73;51307;-79
2022/11/16 15:01:11;;;;;;;;;;;;;;;17.90;62.21;99915.47;2412470;73;51052;-79
2022/11/16 15:04:14;;;;;;;;;;;;;;;17.92;62.13;99915.28;2412170;73;50360;-79
2022/11/16 15:07:17;;;;;;;;;;;;;;;17.90;62.19;99911.45;2358055;73;52731;-81
2022/11/16 15:10:22;;;;;;;;;;;;;;;17.87;62.16;99914.53;2395799;74;50955;-79
2022/11/16 15:13:24;;;;;;;;;;;;;;;17.87;62.13;99909.17;2366017;74;50760;-80
2022/11/16 15:16:25;;;;;;;;;;;;;;;17.84;62.15;99903.70;2369457;74;50680;-80
2022/11/16 15:19:30;;;;;;;;;;;;;;;17.84;62.17;99908.23;2383035;74;52566;-79
2022/11/16 15:22:34;;;;;;;;;;;;;;;17.85;62.11;99911.21;2367636;74;50769;-80
2022/11/16 15:25:43;;;;;;;;;;;;;;;17.81;62.20;99904.10;2387638;74;50741;-80
2022/11/16 15:28:44;;;;;;;;;;;;;;;17.81;62.30;99895.25;2375566;73;51239;-80
2022/11/16 15:31:46;;;;;;;;;;;;;;;17.88;62.19;99907.31;2381838;74;51530;-80
2022/11/16 15:34:52;;;;;;;;;;;;;;;17.93;62.07;99912.91;2369330;75;50418;-80
2022/11/16 15:38:04;;;;;;;;;;;;;;;17.91;62.08;99905.61;2369557;73;51639;-80
2022/11/16 15:41:05;;;;;;;;;;;;;;;17.91;62.07;99906.95;2364936;73;51762;-81
2022/11/16 15:44:07;;;;;;;;;;;;;;;17.87;62.03;99895.80;2381932;73;51409;-80
2022/11/16 15:47:09;;;;;;;;;;;;;;;17.86;62.04;99896.01;2369704;74;50680;-79
2022/11/16 15:50:12;;;;;;;;;;;;;;;17.82;62.09;99903.59;2364111;72;50761;-80
2022/11/16 15:53:15;;;;;;;;;;;;;;;17.81;62.12;99900.09;2361431;75;50785;-78
2022/11/16 15:56:18;;;;;;;;;;;;;;;17.79;62.08;99902.13;2353430;74;51736;-79
2022/11/16 15:59:21;;;;;;;;;;;;;;;17.76;62.23;99899.00;2370849;74;49587;-80
2022/11/16 16:02:26;;;;;;;;;;;;;;;17.79;62.22;99899.45;2397072;74;50468;-78
2022/11/16 16:05:37;;;;;;;;;;;;;;;17.84;62.06;99895.67;2394543;73;50983;-81
2022/11/16 16:08:40;;;;;;;;;;;;;;;17.86;62.01;99891.99;2369579;75;51546;-79
2022/11/16 16:11:42;;;;;;;;;;;;;;;17.85;61.97;99888.47;2381903;74;51641;-80
2022/11/16 16:14:43;;;;;;;;;;;;;;;17.84;61.96;99892.18;2369540;75;50390;-80
2022/11/16 16:17:45;;;;;;;;;;;;;;;17.82;61.95;99892.88;2365729;74;51465;-79
2022/11/16 16:20:47;;;;;;;;;;;;;;;17.81;61.96;99889.91;2368388;75;51500;-79
2022/11/16 16:23:49;;;;;;;;;;;;;;;17.79;62.03;99890.57;2366920;75;50081;-79
2022/11/16 16:26:51;;;;;;;;;;;;;;;17.79;62.03;99906.14;2339301;75;51585;-80
2022/11/16 16:29:53;;;;;;;;;;;;;;;17.78;62.05;99900.45;2366910;75;51467;-80
2022/11/16 16:32:54;;;;;;;;;;;;;;;17.75;62.15;99895.98;2366918;75;51462;-79